sensor_id;sensor_type;location;lat;lon;timestamp;temperature;humidity
52643;DHT22;38531;53.296;6.614;2023-02-15T00:01:25;0.50;99.90
52643;DHT22;38531;53.296;6.614;2023-02-15T00:03:51;1.00;99.90
52643;DHT22;38531;53.296;6.614;2023-02-15T00:06:17;0.20;99.90
52643;DHT22;38531;53.296;6.614;2023-02-15T00:08:43;0.20;99.90
52643;DHT22;38531;53.296;6.614;2023-02-15T00:11:14;0.70;99.90
52643;DHT22;38531;53.296;6.614;2023-02-15T00:13:41;0.30;99.90
52643;DHT22;38531;53.296;6.614;2023-02-15T00:16:11;0.20;99.90
52643;DHT22;38531;53.296;6.614;2023-02-15T00:18:38;0.30;99.90
52643;DHT22;38531;53.296;6.614;2023-02-15T00:21:06;0.80;99.90
52643;DHT22;38531;53.296;6.614;2023-02-15T00:23:32;0.30;99.90
52643;DHT22;38531;53.296;6.614;2023-02-15T00:26:10;1.10;99.90
52643;DHT22;38531;53.296;6.614;2023-02-15T00:28:36;0.10;99.90
52643;DHT22;38531;53.296;6.614;2023-02-15T00:31:06;-0.40;99.90
52643;DHT22;38531;53.296;6.614;2023-02-15T00:33:33;0.10;99.90
52643;DHT22;38531;53.296;6.614;2023-02-15T00:35:59;0.90;99.90
52643;DHT22;38531;53.296;6.614;2023-02-15T00:38:29;0.10;99.90
52643;DHT22;38531;53.296;6.614;2023-02-15T00:40:59;0.60;99.90
52643;DHT22;38531;53.296;6.614;2023-02-15T00:43:26;0.20;99.90
52643;DHT22;38531;53.296;6.614;2023-02-15T00:45:52;1.70;99.90
52643;DHT22;38531;53.296;6.614;2023-02-15T00:48:18;0.00;99.90
52643;DHT22;38531;53.296;6.614;2023-02-15T00:50:49;1.10;99.90
52643;DHT22;38531;53.296;6.614;2023-02-15T00:53:16;1.10;99.90
52643;DHT22;38531;53.296;6.614;2023-02-15T00:55:41;0.00;99.90
52643;DHT22;38531;53.296;6.614;2023-02-15T00:58:08;1.60;99.90
52643;DHT22;38531;53.296;6.614;2023-02-15T01:00:34;1.10;99.90
52643;DHT22;38531;53.296;6.614;2023-02-15T01:03:00;0.20;99.90
52643;DHT22;38531;53.296;6.614;2023-02-15T01:05:26;-0.40;99.90
52643;DHT22;38531;53.296;6.614;2023-02-15T01:07:52;0.90;99.90
52643;DHT22;38531;53.296;6.614;2023-02-15T01:10:17;0.40;99.90
52643;DHT22;38531;53.296;6.614;2023-02-15T01:12:43;0.00;99.90
52643;DHT22;38531;53.296;6.614;2023-02-15T01:15:09;0.00;99.90
52643;DHT22;38531;53.296;6.614;2023-02-15T01:17:35;-0.40;99.90
52643;DHT22;38531;53.296;6.614;2023-02-15T01:20:01;-0.20;99.90
52643;DHT22;38531;53.296;6.614;2023-02-15T01:22:27;0.50;99.90
52643;DHT22;38531;53.296;6.614;2023-02-15T01:24:53;0.50;99.90
52643;DHT22;38531;53.296;6.614;2023-02-15T01:27:18;1.20;99.90
52643;DHT22;38531;53.296;6.614;2023-02-15T01:29:44;-0.20;99.90
52643;DHT22;38531;53.296;6.614;2023-02-15T01:32:10;0.00;99.90
52643;DHT22;38531;53.296;6.614;2023-02-15T01:34:36;-0.30;99.90
52643;DHT22;38531;53.296;6.614;2023-02-15T01:37:01;0.60;99.90
52643;DHT22;38531;53.296;6.614;2023-02-15T01:39:27;-0.20;99.90
52643;DHT22;38531;53.296;6.614;2023-02-15T01:41:52;-0.10;99.90
52643;DHT22;38531;53.296;6.614;2023-02-15T01:44:48;0.40;99.90
52643;DHT22;38531;53.296;6.614;2023-02-15T01:47:39;-0.10;99.90
52643;DHT22;38531;53.296;6.614;2023-02-15T01:52:48;-0.30;99.90
52643;DHT22;38531;53.296;6.614;2023-02-15T01:55:14;-0.30;99.90
52643;DHT22;38531;53.296;6.614;2023-02-15T01:57:41;-0.40;99.90
52643;DHT22;38531;53.296;6.614;2023-02-15T02:00:08;0.50;99.90
52643;DHT22;38531;53.296;6.614;2023-02-15T02:02:34;-0.40;99.90
52643;DHT22;38531;53.296;6.614;2023-02-15T02:05:03;0.70;99.90
52643;DHT22;38531;53.296;6.614;2023-02-15T02:07:37;-0.40;99.90
52643;DHT22;38531;53.296;6.614;2023-02-15T02:10:05;1.10;99.90
52643;DHT22;38531;53.296;6.614;2023-02-15T02:12:32;-1.50;99.90
52643;DHT22;38531;53.296;6.614;2023-02-15T02:14:58;-0.50;99.90
52643;DHT22;38531;53.296;6.614;2023-02-15T02:23:19;-0.40;99.90
52643;DHT22;38531;53.296;6.614;2023-02-15T02:31:16;0.60;99.90
52643;DHT22;38531;53.296;6.614;2023-02-15T02:33:53;-0.50;99.90
52643;DHT22;38531;53.296;6.614;2023-02-15T02:36:42;-1.50;99.90
52643;DHT22;38531;53.296;6.614;2023-02-15T02:44:26;-0.50;99.90
52643;DHT22;38531;53.296;6.614;2023-02-15T02:47:05;0.10;99.90
52643;DHT22;38531;53.296;6.614;2023-02-15T02:49:42;-0.50;99.90
52643;DHT22;38531;53.296;6.614;2023-02-15T02:52:38;-0.10;99.90
52643;DHT22;38531;53.296;6.614;2023-02-15T02:55:10;-0.50;99.90
52643;DHT22;38531;53.296;6.614;2023-02-15T02:57:42;-0.50;99.90
52643;DHT22;38531;53.296;6.614;2023-02-15T03:00:09;0.90;99.90
52643;DHT22;38531;53.296;6.614;2023-02-15T03:02:40;-0.50;99.90
52643;DHT22;38531;53.296;6.614;2023-02-15T03:05:11;-0.50;99.90
52643;DHT22;38531;53.296;6.614;2023-02-15T03:07:39;1.10;99.90
52643;DHT22;38531;53.296;6.614;2023-02-15T03:10:07;-0.50;99.90
52643;DHT22;38531;53.296;6.614;2023-02-15T03:12:39;-0.60;99.90
52643;DHT22;38531;53.296;6.614;2023-02-15T03:15:20;0.30;99.90
52643;DHT22;38531;53.296;6.614;2023-02-15T03:17:57;-0.60;99.90
52643;DHT22;38531;53.296;6.614;2023-02-15T03:20:30;-0.50;99.90
52643;DHT22;38531;53.296;6.614;2023-02-15T03:23:06;-0.60;99.90
52643;DHT22;38531;53.296;6.614;2023-02-15T03:25:36;0.00;99.90
52643;DHT22;38531;53.296;6.614;2023-02-15T03:28:09;0.90;99.90
52643;DHT22;38531;53.296;6.614;2023-02-15T03:30:37;-0.40;99.90
52643;DHT22;38531;53.296;6.614;2023-02-15T03:33:05;-0.70;99.90
52643;DHT22;38531;53.296;6.614;2023-02-15T03:39:05;0.60;99.90
52643;DHT22;38531;53.296;6.614;2023-02-15T03:41:37;-0.80;99.90
52643;DHT22;38531;53.296;6.614;2023-02-15T03:44:18;-0.80;99.90
52643;DHT22;38531;53.296;6.614;2023-02-15T03:46:52;-0.90;99.90
52643;DHT22;38531;53.296;6.614;2023-02-15T03:49:38;-0.80;99.90
52643;DHT22;38531;53.296;6.614;2023-02-15T03:52:07;-0.80;99.90
52643;DHT22;38531;53.296;6.614;2023-02-15T03:54:35;-0.70;99.90
52643;DHT22;38531;53.296;6.614;2023-02-15T04:00:15;-1.00;99.90
52643;DHT22;38531;53.296;6.614;2023-02-15T04:05:41;-0.50;99.90
52643;DHT22;38531;53.296;6.614;2023-02-15T04:08:08;-0.90;99.90
52643;DHT22;38531;53.296;6.614;2023-02-15T04:10:34;-0.90;99.90
52643;DHT22;38531;53.296;6.614;2023-02-15T04:13:21;-0.90;99.90
52643;DHT22;38531;53.296;6.614;2023-02-15T04:15:46;0.10;99.90
52643;DHT22;38531;53.296;6.614;2023-02-15T04:18:35;-0.80;99.90
52643;DHT22;38531;53.296;6.614;2023-02-15T04:21:20;-0.80;99.90
52643;DHT22;38531;53.296;6.614;2023-02-15T04:24:05;-0.80;99.90
52643;DHT22;38531;53.296;6.614;2023-02-15T04:26:49;-0.90;99.90
52643;DHT22;38531;53.296;6.614;2023-02-15T04:29:19;-0.90;99.90
52643;DHT22;38531;53.296;6.614;2023-02-15T04:31:45;-0.70;99.90
52643;DHT22;38531;53.296;6.614;2023-02-15T04:34:10;-0.90;99.90
52643;DHT22;38531;53.296;6.614;2023-02-15T04:36:37;-0.50;99.90
52643;DHT22;38531;53.296;6.614;2023-02-15T04:39:03;-0.40;99.90
52643;DHT22;38531;53.296;6.614;2023-02-15T04:41:29;-1.00;99.90
52643;DHT22;38531;53.296;6.614;2023-02-15T04:43:55;-1.00;99.90
52643;DHT22;38531;53.296;6.614;2023-02-15T04:46:22;0.50;99.90
52643;DHT22;38531;53.296;6.614;2023-02-15T04:48:47;0.00;99.90
52643;DHT22;38531;53.296;6.614;2023-02-15T04:51:13;-0.70;99.90
52643;DHT22;38531;53.296;6.614;2023-02-15T04:53:39;0.00;99.90
52643;DHT22;38531;53.296;6.614;2023-02-15T04:56:04;-0.90;99.90
52643;DHT22;38531;53.296;6.614;2023-02-15T04:58:30;-1.10;99.90
52643;DHT22;38531;53.296;6.614;2023-02-15T05:00:56;-1.10;99.90
52643;DHT22;38531;53.296;6.614;2023-02-15T05:03:22;-1.50;99.90
52643;DHT22;38531;53.296;6.614;2023-02-15T05:05:48;-0.90;99.90
52643;DHT22;38531;53.296;6.614;2023-02-15T05:08:14;-1.10;99.90
52643;DHT22;38531;53.296;6.614;2023-02-15T05:10:40;-1.20;99.90
52643;DHT22;38531;53.296;6.614;2023-02-15T05:13:05;-1.10;99.90
52643;DHT22;38531;53.296;6.614;2023-02-15T05:15:31;-1.20;99.90
52643;DHT22;38531;53.296;6.614;2023-02-15T05:17:57;0.00;99.90
52643;DHT22;38531;53.296;6.614;2023-02-15T05:20:22;0.30;99.90
52643;DHT22;38531;53.296;6.614;2023-02-15T05:22:48;-1.20;99.90
52643;DHT22;38531;53.296;6.614;2023-02-15T05:25:14;-0.20;99.90
52643;DHT22;38531;53.296;6.614;2023-02-15T05:27:58;-1.10;99.90
52643;DHT22;38531;53.296;6.614;2023-02-15T05:30:42;-1.20;99.90
52643;DHT22;38531;53.296;6.614;2023-02-15T05:33:08;-1.30;99.90
52643;DHT22;38531;53.296;6.614;2023-02-15T05:35:34;-1.10;99.90
52643;DHT22;38531;53.296;6.614;2023-02-15T05:38:00;-0.80;99.90
52643;DHT22;38531;53.296;6.614;2023-02-15T05:40:26;-0.40;99.90
52643;DHT22;38531;53.296;6.614;2023-02-15T05:42:52;0.10;99.90
52643;DHT22;38531;53.296;6.614;2023-02-15T05:45:17;-1.20;99.90
52643;DHT22;38531;53.296;6.614;2023-02-15T05:47:43;-1.30;99.90
52643;DHT22;38531;53.296;6.614;2023-02-15T05:50:09;0.10;99.90
52643;DHT22;38531;53.296;6.614;2023-02-15T05:52:36;-1.20;99.90
52643;DHT22;38531;53.296;6.614;2023-02-15T05:55:03;-1.00;99.90
52643;DHT22;38531;53.296;6.614;2023-02-15T05:57:29;-1.10;99.90
52643;DHT22;38531;53.296;6.614;2023-02-15T05:59:55;-1.30;99.90
52643;DHT22;38531;53.296;6.614;2023-02-15T06:02:21;-1.40;99.90
52643;DHT22;38531;53.296;6.614;2023-02-15T06:04:47;-1.30;99.90
52643;DHT22;38531;53.296;6.614;2023-02-15T06:07:12;-1.00;99.90
52643;DHT22;38531;53.296;6.614;2023-02-15T06:09:38;0.00;99.90
52643;DHT22;38531;53.296;6.614;2023-02-15T06:12:04;0.30;99.90
52643;DHT22;38531;53.296;6.614;2023-02-15T06:14:30;-1.20;99.90
52643;DHT22;38531;53.296;6.614;2023-02-15T06:16:56;-0.30;99.90
52643;DHT22;38531;53.296;6.614;2023-02-15T06:19:21;-1.30;99.90
52643;DHT22;38531;53.296;6.614;2023-02-15T06:21:48;-1.50;99.90
52643;DHT22;38531;53.296;6.614;2023-02-15T06:24:14;-0.20;99.90
52643;DHT22;38531;53.296;6.614;2023-02-15T06:26:40;-1.30;99.90
52643;DHT22;38531;53.296;6.614;2023-02-15T06:29:06;-1.20;99.90
52643;DHT22;38531;53.296;6.614;2023-02-15T06:31:31;-1.40;99.90
52643;DHT22;38531;53.296;6.614;2023-02-15T06:33:57;-0.20;99.90
52643;DHT22;38531;53.296;6.614;2023-02-15T06:36:30;-1.50;99.90
52643;DHT22;38531;53.296;6.614;2023-02-15T06:38:56;-0.60;99.90
52643;DHT22;38531;53.296;6.614;2023-02-15T06:41:22;-1.40;99.90
52643;DHT22;38531;53.296;6.614;2023-02-15T06:43:48;-1.40;99.90
52643;DHT22;38531;53.296;6.614;2023-02-15T06:46:14;-1.40;99.90
52643;DHT22;38531;53.296;6.614;2023-02-15T06:48:39;-1.40;99.90
52643;DHT22;38531;53.296;6.614;2023-02-15T06:51:05;-1.50;99.90
52643;DHT22;38531;53.296;6.614;2023-02-15T06:53:31;-1.80;99.90
52643;DHT22;38531;53.296;6.614;2023-02-15T06:56:07;0.40;99.90
52643;DHT22;38531;53.296;6.614;2023-02-15T06:58:35;-1.20;99.90
52643;DHT22;38531;53.296;6.614;2023-02-15T07:01:01;-1.30;99.90
52643;DHT22;38531;53.296;6.614;2023-02-15T07:03:27;-1.00;99.90
52643;DHT22;38531;53.296;6.614;2023-02-15T07:05:57;-1.10;99.90
52643;DHT22;38531;53.296;6.614;2023-02-15T07:08:24;-1.10;99.90
52643;DHT22;38531;53.296;6.614;2023-02-15T07:10:50;-1.20;99.90
52643;DHT22;38531;53.296;6.614;2023-02-15T07:13:16;-1.30;99.90
52643;DHT22;38531;53.296;6.614;2023-02-15T07:15:43;-1.30;99.90
52643;DHT22;38531;53.296;6.614;2023-02-15T07:18:09;-1.20;99.90
52643;DHT22;38531;53.296;6.614;2023-02-15T07:20:36;-1.20;99.90
52643;DHT22;38531;53.296;6.614;2023-02-15T07:23:03;-1.20;99.90
52643;DHT22;38531;53.296;6.614;2023-02-15T07:25:29;-0.50;99.90
52643;DHT22;38531;53.296;6.614;2023-02-15T07:27:59;0.10;99.90
52643;DHT22;38531;53.296;6.614;2023-02-15T07:30:25;0.00;99.90
52643;DHT22;38531;53.296;6.614;2023-02-15T07:32:50;-1.00;99.90
52643;DHT22;38531;53.296;6.614;2023-02-15T07:35:38;-0.70;99.90
52643;DHT22;38531;53.296;6.614;2023-02-15T07:38:03;-0.40;99.90
52643;DHT22;38531;53.296;6.614;2023-02-15T07:40:29;0.10;99.90
52643;DHT22;38531;53.296;6.614;2023-02-15T07:42:57;-0.90;99.90
52643;DHT22;38531;53.296;6.614;2023-02-15T07:45:24;-0.60;99.90
52643;DHT22;38531;53.296;6.614;2023-02-15T07:47:50;-0.80;99.90
52643;DHT22;38531;53.296;6.614;2023-02-15T07:50:15;-2.00;99.90
52643;DHT22;38531;53.296;6.614;2023-02-15T07:52:41;-0.70;99.90
52643;DHT22;38531;53.296;6.614;2023-02-15T07:55:07;0.00;99.90
52643;DHT22;38531;53.296;6.614;2023-02-15T07:57:34;-0.80;99.90
52643;DHT22;38531;53.296;6.614;2023-02-15T08:00:00;0.70;99.90
52643;DHT22;38531;53.296;6.614;2023-02-15T08:02:26;-0.60;99.90
52643;DHT22;38531;53.296;6.614;2023-02-15T08:04:51;0.70;99.90
52643;DHT22;38531;53.296;6.614;2023-02-15T08:07:17;0.70;99.90
52643;DHT22;38531;53.296;6.614;2023-02-15T08:09:43;0.60;99.90
52643;DHT22;38531;53.296;6.614;2023-02-15T08:12:08;-0.30;99.90
52643;DHT22;38531;53.296;6.614;2023-02-15T08:14:34;-0.50;99.90
52643;DHT22;38531;53.296;6.614;2023-02-15T08:17:00;-0.30;99.90
52643;DHT22;38531;53.296;6.614;2023-02-15T08:19:32;-0.40;99.90
52643;DHT22;38531;53.296;6.614;2023-02-15T08:22:00;0.90;99.90
52643;DHT22;38531;53.296;6.614;2023-02-15T08:24:34;-0.30;99.90
52643;DHT22;38531;53.296;6.614;2023-02-15T08:27:01;-0.10;99.90
52643;DHT22;38531;53.296;6.614;2023-02-15T08:29:31;-0.10;99.90
52643;DHT22;38531;53.296;6.614;2023-02-15T08:32:00;1.50;99.90
52643;DHT22;38531;53.296;6.614;2023-02-15T08:34:29;0.00;99.90
52643;DHT22;38531;53.296;6.614;2023-02-15T08:36:55;0.10;99.90
52643;DHT22;38531;53.296;6.614;2023-02-15T08:39:20;0.20;99.90
52643;DHT22;38531;53.296;6.614;2023-02-15T08:41:47;1.20;99.90
52643;DHT22;38531;53.296;6.614;2023-02-15T08:44:15;0.30;99.90
52643;DHT22;38531;53.296;6.614;2023-02-15T08:46:43;1.30;99.90
52643;DHT22;38531;53.296;6.614;2023-02-15T08:49:12;0.50;99.90
52643;DHT22;38531;53.296;6.614;2023-02-15T08:51:38;1.30;99.90
52643;DHT22;38531;53.296;6.614;2023-02-15T08:54:07;1.70;99.90
52643;DHT22;38531;53.296;6.614;2023-02-15T08:56:37;0.50;99.90
52643;DHT22;38531;53.296;6.614;2023-02-15T08:59:04;2.60;99.90
52643;DHT22;38531;53.296;6.614;2023-02-15T09:01:32;2.70;99.90
52643;DHT22;38531;53.296;6.614;2023-02-15T09:04:00;1.30;99.90
52643;DHT22;38531;53.296;6.614;2023-02-15T09:06:27;2.90;99.90
52643;DHT22;38531;53.296;6.614;2023-02-15T09:08:53;1.50;99.90
52643;DHT22;38531;53.296;6.614;2023-02-15T09:11:21;1.60;99.90
52643;DHT22;38531;53.296;6.614;2023-02-15T09:13:59;2.10;99.90
52643;DHT22;38531;53.296;6.614;2023-02-15T09:16:28;1.80;99.90
52643;DHT22;38531;53.296;6.614;2023-02-15T09:18:54;2.20;99.90
52643;DHT22;38531;53.296;6.614;2023-02-15T09:21:24;3.30;99.90
52643;DHT22;38531;53.296;6.614;2023-02-15T09:23:55;2.70;99.90
52643;DHT22;38531;53.296;6.614;2023-02-15T09:26:22;2.80;99.90
52643;DHT22;38531;53.296;6.614;2023-02-15T09:28:52;2.30;99.90
52643;DHT22;38531;53.296;6.614;2023-02-15T09:31:20;2.90;99.90
52643;DHT22;38531;53.296;6.614;2023-02-15T09:33:47;3.90;99.90
52643;DHT22;38531;53.296;6.614;2023-02-15T09:36:25;3.30;99.90
52643;DHT22;38531;53.296;6.614;2023-02-15T09:41:35;4.40;99.90
52643;DHT22;38531;53.296;6.614;2023-02-15T09:47:08;3.40;99.90
52643;DHT22;38531;53.296;6.614;2023-02-15T10:00:47;4.10;99.90
52643;DHT22;38531;53.296;6.614;2023-02-15T10:25:19;5.50;99.90
52643;DHT22;38531;53.296;6.614;2023-02-15T10:27:49;6.20;99.90
52643;DHT22;38531;53.296;6.614;2023-02-15T10:30:20;6.50;99.90
52643;DHT22;38531;53.296;6.614;2023-02-15T10:33:04;5.90;99.90
52643;DHT22;38531;53.296;6.614;2023-02-15T10:35:43;7.40;99.90
52643;DHT22;38531;53.296;6.614;2023-02-15T10:51:58;6.80;99.90
52643;DHT22;38531;53.296;6.614;2023-02-15T11:08:06;7.70;99.90
52643;DHT22;38531;53.296;6.614;2023-02-15T11:10:42;7.90;99.90
52643;DHT22;38531;53.296;6.614;2023-02-15T11:13:11;8.40;99.90
52643;DHT22;38531;53.296;6.614;2023-02-15T11:15:53;8.00;99.90
52643;DHT22;38531;53.296;6.614;2023-02-15T11:21:01;8.40;99.90
52643;DHT22;38531;53.296;6.614;2023-02-15T11:23:27;8.30;99.90
52643;DHT22;38531;53.296;6.614;2023-02-15T11:25:59;8.40;99.90
52643;DHT22;38531;53.296;6.614;2023-02-15T11:28:33;9.10;99.90
52643;DHT22;38531;53.296;6.614;2023-02-15T11:31:09;8.80;99.90
52643;DHT22;38531;53.296;6.614;2023-02-15T11:33:38;8.40;99.90
52643;DHT22;38531;53.296;6.614;2023-02-15T11:38:42;8.80;99.90
52643;DHT22;38531;53.296;6.614;2023-02-15T11:41:13;9.50;99.90
52643;DHT22;38531;53.296;6.614;2023-02-15T11:43:56;9.00;99.90
52643;DHT22;38531;53.296;6.614;2023-02-15T11:46:23;9.20;99.90
52643;DHT22;38531;53.296;6.614;2023-02-15T11:48:49;9.30;99.90
52643;DHT22;38531;53.296;6.614;2023-02-15T11:51:18;9.30;99.90
52643;DHT22;38531;53.296;6.614;2023-02-15T11:53:45;9.40;99.90
52643;DHT22;38531;53.296;6.614;2023-02-15T11:56:16;9.50;99.90
52643;DHT22;38531;53.296;6.614;2023-02-15T11:59:05;9.60;99.90
52643;DHT22;38531;53.296;6.614;2023-02-15T12:01:37;9.70;99.90
52643;DHT22;38531;53.296;6.614;2023-02-15T12:04:29;10.50;99.90
52643;DHT22;38531;53.296;6.614;2023-02-15T12:07:09;9.80;99.90
52643;DHT22;38531;53.296;6.614;2023-02-15T12:12:26;10.50;99.90
52643;DHT22;38531;53.296;6.614;2023-02-15T12:14:54;10.40;99.90
52643;DHT22;38531;53.296;6.614;2023-02-15T12:17:23;10.30;99.90
52643;DHT22;38531;53.296;6.614;2023-02-15T12:19:52;10.40;99.90
52643;DHT22;38531;53.296;6.614;2023-02-15T12:24:55;10.70;99.90
52643;DHT22;38531;53.296;6.614;2023-02-15T12:27:27;10.70;99.90
52643;DHT22;38531;53.296;6.614;2023-02-15T12:30:03;10.80;99.90
52643;DHT22;38531;53.296;6.614;2023-02-15T12:35:34;11.00;99.90
52643;DHT22;38531;53.296;6.614;2023-02-15T12:38:09;11.10;99.90
52643;DHT22;38531;53.296;6.614;2023-02-15T12:40:58;11.20;99.90
52643;DHT22;38531;53.296;6.614;2023-02-15T12:43:33;11.20;99.90
52643;DHT22;38531;53.296;6.614;2023-02-15T12:46:23;11.30;99.90
52643;DHT22;38531;53.296;6.614;2023-02-15T12:49:05;11.30;99.90
52643;DHT22;38531;53.296;6.614;2023-02-15T12:51:52;11.50;99.90
52643;DHT22;38531;53.296;6.614;2023-02-15T12:56:49;11.70;99.90
52643;DHT22;38531;53.296;6.614;2023-02-15T12:59:15;11.80;99.90
52643;DHT22;38531;53.296;6.614;2023-02-15T13:01:42;11.80;99.90
52643;DHT22;38531;53.296;6.614;2023-02-15T13:04:34;11.80;99.90
52643;DHT22;38531;53.296;6.614;2023-02-15T13:07:01;11.90;99.90
52643;DHT22;38531;53.296;6.614;2023-02-15T13:14:35;12.00;99.90
52643;DHT22;38531;53.296;6.614;2023-02-15T13:17:04;12.00;99.90
52643;DHT22;38531;53.296;6.614;2023-02-15T13:19:39;11.90;99.90
52643;DHT22;38531;53.296;6.614;2023-02-15T13:22:10;11.90;99.90
52643;DHT22;38531;53.296;6.614;2023-02-15T13:24:47;11.90;99.90
52643;DHT22;38531;53.296;6.614;2023-02-15T13:27:15;11.80;99.90
52643;DHT22;38531;53.296;6.614;2023-02-15T13:29:49;11.80;99.90
52643;DHT22;38531;53.296;6.614;2023-02-15T13:32:30;11.70;99.90
52643;DHT22;38531;53.296;6.614;2023-02-15T13:34:58;11.70;99.90
52643;DHT22;38531;53.296;6.614;2023-02-15T13:37:45;11.80;99.90
52643;DHT22;38531;53.296;6.614;2023-02-15T13:43:04;11.80;99.90
52643;DHT22;38531;53.296;6.614;2023-02-15T13:45:40;11.80;99.90
52643;DHT22;38531;53.296;6.614;2023-02-15T13:59:38;11.80;99.90
52643;DHT22;38531;53.296;6.614;2023-02-15T14:10:26;11.80;99.90
52643;DHT22;38531;53.296;6.614;2023-02-15T14:15:53;11.70;99.90
52643;DHT22;38531;53.296;6.614;2023-02-15T14:21:19;11.60;99.90
52643;DHT22;38531;53.296;6.614;2023-02-15T14:29:19;11.50;99.90
52643;DHT22;38531;53.296;6.614;2023-02-15T14:31:50;11.50;99.90
52643;DHT22;38531;53.296;6.614;2023-02-15T14:34:40;11.50;99.90
52643;DHT22;38531;53.296;6.614;2023-02-15T14:37:11;11.50;99.90
52643;DHT22;38531;53.296;6.614;2023-02-15T14:43:33;11.40;99.90
52643;DHT22;38531;53.296;6.614;2023-02-15T14:48:51;11.30;99.90
52643;DHT22;38531;53.296;6.614;2023-02-15T14:59:43;11.60;99.90
52643;DHT22;38531;53.296;6.614;2023-02-15T15:02:15;11.10;99.90
52643;DHT22;38531;53.296;6.614;2023-02-15T15:04:46;11.10;99.90
52643;DHT22;38531;53.296;6.614;2023-02-15T15:07:26;11.10;99.90
52643;DHT22;38531;53.296;6.614;2023-02-15T15:10:07;11.00;99.90
52643;DHT22;38531;53.296;6.614;2023-02-15T15:12:43;10.90;99.90
52643;DHT22;38531;53.296;6.614;2023-02-15T15:15:15;10.90;99.90
52643;DHT22;38531;53.296;6.614;2023-02-15T15:18:08;10.90;99.90
52643;DHT22;38531;53.296;6.614;2023-02-15T15:20:48;10.80;99.90
52643;DHT22;38531;53.296;6.614;2023-02-15T15:25:46;10.70;99.90
52643;DHT22;38531;53.296;6.614;2023-02-15T15:31:19;10.50;99.90
52643;DHT22;38531;53.296;6.614;2023-02-15T15:40:12;10.20;99.90
52643;DHT22;38531;53.296;6.614;2023-02-15T15:45:35;10.00;99.90
52643;DHT22;38531;53.296;6.614;2023-02-15T15:48:30;9.90;99.90
52643;DHT22;38531;53.296;6.614;2023-02-15T15:51:27;9.80;99.90
52643;DHT22;38531;53.296;6.614;2023-02-15T15:53:51;9.10;99.90
52643;DHT22;38531;53.296;6.614;2023-02-15T15:56:25;9.70;99.90
52643;DHT22;38531;53.296;6.614;2023-02-15T15:59:06;9.40;99.90
52643;DHT22;38531;53.296;6.614;2023-02-15T16:01:43;9.40;99.90
52643;DHT22;38531;53.296;6.614;2023-02-15T16:04:13;10.50;99.90
52643;DHT22;38531;53.296;6.614;2023-02-15T16:06:42;9.20;99.90
52643;DHT22;38531;53.296;6.614;2023-02-15T16:09:19;9.10;99.90
52643;DHT22;38531;53.296;6.614;2023-02-15T16:11:46;9.00;99.90
52643;DHT22;38531;53.296;6.614;2023-02-15T16:16:52;8.80;99.90
52643;DHT22;38531;53.296;6.614;2023-02-15T16:19:23;8.70;99.90
52643;DHT22;38531;53.296;6.614;2023-02-15T16:21:50;8.60;99.90
52643;DHT22;38531;53.296;6.614;2023-02-15T16:24:22;8.90;99.90
52643;DHT22;38531;53.296;6.614;2023-02-15T16:27:07;8.40;99.90
52643;DHT22;38531;53.296;6.614;2023-02-15T16:29:34;9.40;99.90
52643;DHT22;38531;53.296;6.614;2023-02-15T16:32:23;8.50;99.90
52643;DHT22;38531;53.296;6.614;2023-02-15T16:35:00;8.10;99.90
52643;DHT22;38531;53.296;6.614;2023-02-15T16:37:31;8.00;99.90
52643;DHT22;38531;53.296;6.614;2023-02-15T16:39:57;7.90;99.90
52643;DHT22;38531;53.296;6.614;2023-02-15T16:42:24;8.10;99.90
52643;DHT22;38531;53.296;6.614;2023-02-15T16:45:13;7.70;99.90
52643;DHT22;38531;53.296;6.614;2023-02-15T16:47:43;7.60;99.90
52643;DHT22;38531;53.296;6.614;2023-02-15T16:50:37;8.00;99.90
52643;DHT22;38531;53.296;6.614;2023-02-15T16:53:06;7.40;99.90
52643;DHT22;38531;53.296;6.614;2023-02-15T16:55:38;7.30;99.90
52643;DHT22;38531;53.296;6.614;2023-02-15T16:58:06;7.10;99.90
52643;DHT22;38531;53.296;6.614;2023-02-15T17:00:38;7.00;99.90
52643;DHT22;38531;53.296;6.614;2023-02-15T17:13:36;7.20;99.90
52643;DHT22;38531;53.296;6.614;2023-02-15T17:18:30;7.70;99.90
52643;DHT22;38531;53.296;6.614;2023-02-15T17:21:00;6.40;99.90
52643;DHT22;38531;53.296;6.614;2023-02-15T17:23:41;6.30;99.90
52643;DHT22;38531;53.296;6.614;2023-02-15T17:26:23;6.30;99.90
52643;DHT22;38531;53.296;6.614;2023-02-15T17:28:51;6.20;99.90
52643;DHT22;38531;53.296;6.614;2023-02-15T17:31:19;6.90;99.90
52643;DHT22;38531;53.296;6.614;2023-02-15T17:33:46;7.00;99.90
52643;DHT22;38531;53.296;6.614;2023-02-15T17:36:18;6.60;99.90
52643;DHT22;38531;53.296;6.614;2023-02-15T17:41:34;5.90;99.90
52643;DHT22;38531;53.296;6.614;2023-02-15T17:44:01;6.50;99.90
52643;DHT22;38531;53.296;6.614;2023-02-15T17:46:33;5.80;99.90
52643;DHT22;38531;53.296;6.614;2023-02-15T17:49:00;5.80;99.90
52643;DHT22;38531;53.296;6.614;2023-02-15T17:51:26;5.70;99.90
52643;DHT22;38531;53.296;6.614;2023-02-15T17:53:52;6.40;99.90
52643;DHT22;38531;53.296;6.614;2023-02-15T17:56:42;5.90;99.90
52643;DHT22;38531;53.296;6.614;2023-02-15T17:59:08;6.40;99.90
52643;DHT22;38531;53.296;6.614;2023-02-15T18:01:37;6.30;99.90
52643;DHT22;38531;53.296;6.614;2023-02-15T18:04:24;7.00;99.90
52643;DHT22;38531;53.296;6.614;2023-02-15T18:07:09;5.50;99.90
52643;DHT22;38531;53.296;6.614;2023-02-15T18:09:55;5.70;99.90
52643;DHT22;38531;53.296;6.614;2023-02-15T18:12:40;6.00;99.90
52643;DHT22;38531;53.296;6.614;2023-02-15T18:15:09;5.50;99.90
52643;DHT22;38531;53.296;6.614;2023-02-15T18:17:42;5.50;99.90
52643;DHT22;38531;53.296;6.614;2023-02-15T18:20:24;5.50;99.90
52643;DHT22;38531;53.296;6.614;2023-02-15T18:22:53;5.50;99.90
52643;DHT22;38531;53.296;6.614;2023-02-15T18:25:20;7.00;99.90
52643;DHT22;38531;53.296;6.614;2023-02-15T18:27:48;5.60;99.90
52643;DHT22;38531;53.296;6.614;2023-02-15T18:30:18;6.80;99.90
52643;DHT22;38531;53.296;6.614;2023-02-15T18:32:44;5.60;99.90
52643;DHT22;38531;53.296;6.614;2023-02-15T18:35:19;6.30;99.90
52643;DHT22;38531;53.296;6.614;2023-02-15T18:37:46;5.60;99.90
52643;DHT22;38531;53.296;6.614;2023-02-15T18:40:20;7.20;99.90
52643;DHT22;38531;53.296;6.614;2023-02-15T18:42:46;5.70;99.90
52643;DHT22;38531;53.296;6.614;2023-02-15T18:45:16;5.70;99.90
52643;DHT22;38531;53.296;6.614;2023-02-15T18:47:43;6.60;99.90
52643;DHT22;38531;53.296;6.614;2023-02-15T18:50:10;6.60;99.90
52643;DHT22;38531;53.296;6.614;2023-02-15T18:52:37;5.80;99.90
52643;DHT22;38531;53.296;6.614;2023-02-15T18:55:23;5.90;99.90
52643;DHT22;38531;53.296;6.614;2023-02-15T18:57:51;5.90;99.90
52643;DHT22;38531;53.296;6.614;2023-02-15T19:00:22;6.00;99.90
52643;DHT22;38531;53.296;6.614;2023-02-15T19:02:53;6.10;99.90
52643;DHT22;38531;53.296;6.614;2023-02-15T19:05:19;7.30;99.90
52643;DHT22;38531;53.296;6.614;2023-02-15T19:07:46;6.20;99.90
52643;DHT22;38531;53.296;6.614;2023-02-15T19:10:24;6.20;99.90
52643;DHT22;38531;53.296;6.614;2023-02-15T19:12:51;7.40;99.90
52643;DHT22;38531;53.296;6.614;2023-02-15T19:15:26;6.30;99.90
52643;DHT22;38531;53.296;6.614;2023-02-15T19:17:53;7.80;99.90
52643;DHT22;38531;53.296;6.614;2023-02-15T19:20:21;6.30;99.90